AXY35X WAJJ-RPLL
Flight info
| Callsign | AXY35X |
|---|---|
| Flight time | N/A |
| Altitude | 36000 |
| Route | KUBIA DCT MIMIK B462 BIDOR/N0481F380 B462 POXEL DCT 08N127E DCT SADOK DCT CONDE CONDE5R |
| Aircraft | A346/H-SDE2E3FGHIJ3J4J5M1RWXY/LB1D1 |
Departure
| Time | 2026-05-07 16:32 |
|---|---|
| Airport | Dortheys Hiyo Eluay International Airport (WAJJ) |
Arrival
| Time | N/A |
|---|---|
| Airport | Ninoy Aquino International Airport (RPLL) |
| Time | Latitude | Longitude | Altitude | Speed | Heading |
|---|---|---|---|---|---|
| 2026-05-07 15:57 | -2.57225 | 140.51387 | 306 ft | 0 kts | 36° |
| 2026-05-07 16:19 | -2.57231 | 140.51382 | 306 ft | 4 kts | 36° |
| 2026-05-07 16:19 | -2.57250 | 140.51368 | 308 ft | 4 kts | 34° |
| 2026-05-07 16:20 | -2.57270 | 140.51359 | 307 ft | 4 kts | 5° |
| 2026-05-07 16:20 | -2.57285 | 140.51362 | 306 ft | 4 kts | 323° |
| 2026-05-07 16:20 | -2.57301 | 140.51380 | 306 ft | 4 kts | 305° |
| 2026-05-07 16:20 | -2.57313 | 140.51396 | 306 ft | 0 kts | 307° |
| 2026-05-07 16:25 | -2.57312 | 140.51395 | 306 ft | 1 kts | 307° |
| 2026-05-07 16:26 | -2.57303 | 140.51383 | 309 ft | 3 kts | 307° |
| 2026-05-07 16:26 | -2.57286 | 140.51361 | 306 ft | 5 kts | 306° |
| 2026-05-07 16:26 | -2.57264 | 140.51330 | 309 ft | 4 kts | 306° |
| 2026-05-07 16:26 | -2.57242 | 140.51300 | 309 ft | 7 kts | 306° |
| 2026-05-07 16:27 | -2.57213 | 140.51261 | 309 ft | 6 kts | 306° |
| 2026-05-07 16:27 | -2.57189 | 140.51229 | 308 ft | 3 kts | 306° |
| 2026-05-07 16:27 | -2.57172 | 140.51205 | 309 ft | 5 kts | 307° |
| 2026-05-07 16:27 | -2.57148 | 140.51173 | 309 ft | 7 kts | 307° |
| 2026-05-07 16:28 | -2.57116 | 140.51136 | 310 ft | 6 kts | 311° |
| 2026-05-07 16:28 | -2.57098 | 140.51108 | 309 ft | 4 kts | 278° |
| 2026-05-07 16:28 | -2.57106 | 140.51083 | 310 ft | 4 kts | 242° |
| 2026-05-07 16:28 | -2.57115 | 140.51070 | 310 ft | 0 kts | 228° |
| 2026-05-07 16:29 | -2.57118 | 140.51066 | 310 ft | 3 kts | 228° |
| 2026-05-07 16:29 | -2.57138 | 140.51044 | 310 ft | 5 kts | 228° |
| 2026-05-07 16:30 | -2.57161 | 140.51018 | 311 ft | 5 kts | 231° |
| 2026-05-07 16:30 | -2.57185 | 140.50992 | 310 ft | 4 kts | 216° |
| 2026-05-07 16:30 | -2.57200 | 140.50991 | 311 ft | 2 kts | 156° |
| 2026-05-07 16:30 | -2.57213 | 140.51002 | 313 ft | 0 kts | 129° |
| 2026-05-07 16:31 | -2.57214 | 140.51002 | 313 ft | 0 kts | 129° |
| 2026-05-07 16:31 | -2.57238 | 140.51032 | 311 ft | 28 kts | 128° |
| 2026-05-07 16:32 | -2.57537 | 140.51431 | 308 ft | 110 kts | 127° |
| 2026-05-07 16:32 | -2.58128 | 140.52227 | 309 ft | 176 kts | 126° |
| 2026-05-07 16:32 | -2.58932 | 140.53313 | 738 ft | 201 kts | 127° |
| 2026-05-07 16:32 | -2.59773 | 140.54437 | 1635 ft | 204 kts | 127° |
| 2026-05-07 16:33 | -2.60629 | 140.55575 | 2309 ft | 206 kts | 127° |
| 2026-05-07 16:33 | -2.61523 | 140.56770 | 2790 ft | 219 kts | 127° |
| 2026-05-07 16:33 | -2.62466 | 140.58030 | 2958 ft | 235 kts | 127° |
| 2026-05-07 16:33 | -2.63455 | 140.59352 | 2930 ft | 237 kts | 127° |
| 2026-05-07 16:34 | -2.64605 | 140.60527 | 2926 ft | 238 kts | 152° |
| 2026-05-07 16:34 | -2.66198 | 140.60924 | 2965 ft | 239 kts | 185° |
| 2026-05-07 16:34 | -2.67757 | 140.60407 | 2967 ft | 239 kts | 217° |
| 2026-05-07 16:34 | -2.68812 | 140.59140 | 2974 ft | 240 kts | 249° |
| 2026-05-07 16:35 | -2.69042 | 140.57508 | 2977 ft | 240 kts | 281° |
| 2026-05-07 16:35 | -2.68435 | 140.55961 | 2994 ft | 240 kts | 298° |
| 2026-05-07 16:35 | -2.67638 | 140.54493 | 2987 ft | 240 kts | 298° |
| 2026-05-07 16:35 | -2.66813 | 140.52978 | 2998 ft | 259 kts | 298° |
| 2026-05-07 16:36 | -2.65925 | 140.51346 | 3067 ft | 275 kts | 298° |
| 2026-05-07 16:36 | -2.65000 | 140.49641 | 3796 ft | 277 kts | 298° |
| 2026-05-07 16:36 | -2.64082 | 140.47958 | 4758 ft | 274 kts | 298° |
| 2026-05-07 16:36 | -2.63156 | 140.46280 | 5506 ft | 278 kts | 298° |
| 2026-05-07 16:37 | -2.62219 | 140.44595 | 6192 ft | 283 kts | 298° |
| 2026-05-07 16:37 | -2.61253 | 140.42861 | 6870 ft | 287 kts | 298° |
| 2026-05-07 16:37 | -2.60277 | 140.41105 | 7562 ft | 289 kts | 298° |
| 2026-05-07 16:37 | -2.59295 | 140.39335 | 8267 ft | 292 kts | 298° |
| 2026-05-07 16:38 | -2.58305 | 140.37546 | 8951 ft | 295 kts | 298° |
| 2026-05-07 16:38 | -2.57307 | 140.35738 | 9613 ft | 298 kts | 298° |
| 2026-05-07 16:38 | -2.56299 | 140.33908 | 10183 ft | 303 kts | 298° |
| 2026-05-07 16:38 | -2.55256 | 140.32009 | 10508 ft | 318 kts | 298° |
| 2026-05-07 16:39 | -2.54162 | 140.30013 | 10779 ft | 334 kts | 298° |
| 2026-05-07 16:39 | -2.53020 | 140.27928 | 11053 ft | 349 kts | 298° |
| 2026-05-07 16:39 | -2.51844 | 140.25777 | 11316 ft | 364 kts | 298° |
| 2026-05-07 16:39 | -2.50607 | 140.23512 | 11687 ft | 374 kts | 298° |
| 2026-05-07 16:40 | -2.49350 | 140.21208 | 12285 ft | 378 kts | 298° |
| 2026-05-07 16:40 | -2.48279 | 140.18797 | 12912 ft | 380 kts | 289° |
| 2026-05-07 16:40 | -2.47480 | 140.16257 | 13550 ft | 383 kts | 286° |
| 2026-05-07 16:40 | -2.46728 | 140.13687 | 14077 ft | 387 kts | 286° |
| 2026-05-07 16:41 | -2.45960 | 140.11093 | 14598 ft | 390 kts | 287° |
| 2026-05-07 16:41 | -2.45169 | 140.08480 | 15133 ft | 393 kts | 287° |
| 2026-05-07 16:41 | -2.44357 | 140.05844 | 15667 ft | 396 kts | 287° |
| 2026-05-07 16:41 | -2.43534 | 140.03202 | 16189 ft | 399 kts | 287° |
| 2026-05-07 16:42 | -2.42699 | 140.00540 | 16712 ft | 402 kts | 287° |
| 2026-05-07 16:42 | -2.41856 | 139.97864 | 17227 ft | 405 kts | 287° |
| 2026-05-07 16:42 | -2.41006 | 139.95169 | 17744 ft | 407 kts | 287° |
| 2026-05-07 16:42 | -2.40148 | 139.92453 | 18229 ft | 410 kts | 287° |
| 2026-05-07 16:43 | -2.39282 | 139.89716 | 18648 ft | 413 kts | 287° |
| 2026-05-07 16:43 | -2.38412 | 139.86966 | 19072 ft | 416 kts | 287° |
| 2026-05-07 16:43 | -2.37545 | 139.84226 | 19480 ft | 419 kts | 287° |
| 2026-05-07 16:43 | -2.36652 | 139.81401 | 19904 ft | 422 kts | 287° |
| 2026-05-07 16:44 | -2.35774 | 139.78629 | 20312 ft | 424 kts | 287° |
| 2026-05-07 16:44 | -2.34879 | 139.75802 | 20722 ft | 427 kts | 287° |
| 2026-05-07 16:44 | -2.33977 | 139.72956 | 21131 ft | 430 kts | 287° |
| 2026-05-07 16:44 | -2.33071 | 139.70096 | 21548 ft | 432 kts | 287° |
| 2026-05-07 16:45 | -2.32159 | 139.67217 | 21936 ft | 435 kts | 287° |
| 2026-05-07 16:45 | -2.31241 | 139.64318 | 22323 ft | 438 kts | 287° |
| 2026-05-07 16:45 | -2.30315 | 139.61394 | 22694 ft | 441 kts | 287° |
| 2026-05-07 16:45 | -2.29385 | 139.58458 | 23079 ft | 444 kts | 287° |
| 2026-05-07 16:46 | -2.28448 | 139.55499 | 23452 ft | 446 kts | 287° |
| 2026-05-07 16:46 | -2.27506 | 139.52528 | 23754 ft | 449 kts | 287° |
| 2026-05-07 16:46 | -2.26558 | 139.49537 | 24074 ft | 451 kts | 287° |
| 2026-05-07 16:46 | -2.25605 | 139.46532 | 24390 ft | 453 kts | 287° |
| 2026-05-07 16:47 | -2.24650 | 139.43516 | 24694 ft | 456 kts | 287° |
| 2026-05-07 16:47 | -2.23689 | 139.40486 | 25007 ft | 458 kts | 287° |
| 2026-05-07 16:47 | -2.22725 | 139.37442 | 25316 ft | 460 kts | 288° |
| 2026-05-07 16:47 | -2.21754 | 139.34380 | 25635 ft | 462 kts | 288° |
| 2026-05-07 16:48 | -2.20794 | 139.31352 | 25933 ft | 464 kts | 288° |
| 2026-05-07 16:48 | -2.19814 | 139.28264 | 26221 ft | 466 kts | 288° |
| 2026-05-07 16:48 | -2.18828 | 139.25156 | 26521 ft | 469 kts | 288° |
| 2026-05-07 16:48 | -2.17836 | 139.22029 | 26813 ft | 471 kts | 288° |
| 2026-05-07 16:49 | -2.17179 | 139.19960 | 27005 ft | 473 kts | 288° |
| 2026-05-07 16:49 | -2.16180 | 139.16811 | 27292 ft | 475 kts | 288° |
| 2026-05-07 16:49 | -2.15178 | 139.13656 | 27575 ft | 477 kts | 288° |
| 2026-05-07 16:49 | -2.14170 | 139.10484 | 27855 ft | 479 kts | 288° |
| 2026-05-07 16:50 | -2.13155 | 139.07290 | 28137 ft | 481 kts | 288° |
| 2026-05-07 16:50 | -2.12128 | 139.04061 | 28416 ft | 484 kts | 288° |
| 2026-05-07 16:50 | -2.11107 | 139.00842 | 28692 ft | 486 kts | 288° |
| 2026-05-07 16:50 | -2.10008 | 138.97638 | 28958 ft | 488 kts | 291° |
| 2026-05-07 16:51 | -2.08670 | 138.94509 | 29208 ft | 490 kts | 296° |
| 2026-05-07 16:51 | -2.07087 | 138.91482 | 29449 ft | 491 kts | 300° |
| 2026-05-07 16:51 | -2.05263 | 138.88571 | 29713 ft | 493 kts | 305° |
| 2026-05-07 16:51 | -2.03299 | 138.85796 | 29950 ft | 495 kts | 306° |
| 2026-05-07 16:52 | -2.01274 | 138.82998 | 30161 ft | 497 kts | 306° |
| 2026-05-07 16:52 | -1.99232 | 138.80190 | 30378 ft | 499 kts | 306° |
| 2026-05-07 16:52 | -1.97189 | 138.77377 | 30607 ft | 500 kts | 306° |
| 2026-05-07 16:52 | -1.95141 | 138.74553 | 30825 ft | 502 kts | 306° |
| 2026-05-07 16:53 | -1.93093 | 138.71724 | 31088 ft | 501 kts | 306° |
| 2026-05-07 16:53 | -1.91060 | 138.68913 | 31578 ft | 496 kts | 306° |
| 2026-05-07 16:53 | -1.89041 | 138.66119 | 32057 ft | 492 kts | 306° |
| 2026-05-07 16:53 | -1.87040 | 138.63350 | 32422 ft | 490 kts | 306° |
| 2026-05-07 16:54 | -1.85042 | 138.60586 | 32752 ft | 489 kts | 306° |
| 2026-05-07 16:54 | -1.83046 | 138.57824 | 33070 ft | 489 kts | 306° |
| 2026-05-07 16:54 | -1.81050 | 138.55062 | 33388 ft | 488 kts | 307° |
| 2026-05-07 16:54 | -1.79061 | 138.52310 | 33712 ft | 488 kts | 307° |
| 2026-05-07 16:55 | -1.77097 | 138.49591 | 33996 ft | 487 kts | 307° |
| 2026-05-07 16:55 | -1.75117 | 138.46851 | 34257 ft | 487 kts | 307° |
| 2026-05-07 16:55 | -1.73126 | 138.44096 | 34497 ft | 487 kts | 307° |
| 2026-05-07 16:55 | -1.71138 | 138.41346 | 34740 ft | 487 kts | 307° |
| 2026-05-07 16:56 | -1.69151 | 138.38596 | 34997 ft | 487 kts | 307° |
| 2026-05-07 16:56 | -1.67169 | 138.35852 | 35228 ft | 487 kts | 307° |
| 2026-05-07 16:56 | -1.63194 | 138.30352 | 35661 ft | 488 kts | 307° |
| 2026-05-07 16:57 | -1.61203 | 138.27598 | 35814 ft | 489 kts | 307° |
| 2026-05-07 16:57 | -1.59207 | 138.24837 | 35825 ft | 489 kts | 307° |
| 2026-05-07 16:57 | -1.55220 | 138.19322 | 35822 ft | 489 kts | 307° |
| 2026-05-07 16:58 | -1.51232 | 138.13806 | 35838 ft | 489 kts | 307° |
| 2026-05-07 16:58 | -1.47244 | 138.08290 | 35839 ft | 489 kts | 307° |
| 2026-05-07 16:59 | -1.43254 | 138.02771 | 35828 ft | 489 kts | 307° |
| 2026-05-07 16:59 | -1.39289 | 137.97290 | 35838 ft | 490 kts | 307° |
| 2026-05-07 17:00 | -1.35287 | 137.91756 | 35834 ft | 490 kts | 307° |
| 2026-05-07 17:00 | -1.31289 | 137.86224 | 35835 ft | 490 kts | 307° |
| 2026-05-07 17:01 | -1.27292 | 137.80698 | 35821 ft | 490 kts | 307° |
| 2026-05-07 17:01 | -1.23290 | 137.75163 | 35837 ft | 490 kts | 307° |
| 2026-05-07 17:02 | -1.19287 | 137.69627 | 35837 ft | 491 kts | 307° |
| 2026-05-07 17:02 | -1.15282 | 137.64092 | 35837 ft | 491 kts | 307° |
| 2026-05-07 17:03 | -1.11273 | 137.58553 | 35822 ft | 491 kts | 307° |
| 2026-05-07 17:03 | -1.07292 | 137.53055 | 35821 ft | 490 kts | 306° |
| 2026-05-07 17:04 | -1.03297 | 137.47525 | 35835 ft | 490 kts | 306° |
| 2026-05-07 17:04 | -0.99301 | 137.42003 | 35835 ft | 490 kts | 306° |
| 2026-05-07 17:05 | -0.95306 | 137.36480 | 35826 ft | 490 kts | 306° |
| 2026-05-07 17:05 | -0.91323 | 137.30974 | 35822 ft | 491 kts | 306° |
| 2026-05-07 17:06 | -0.87315 | 137.25434 | 35839 ft | 491 kts | 306° |
| 2026-05-07 17:06 | -0.83305 | 137.19892 | 35838 ft | 491 kts | 306° |
| 2026-05-07 17:07 | -0.79293 | 137.14352 | 35827 ft | 491 kts | 306° |
| 2026-05-07 17:07 | -0.75286 | 137.08812 | 35823 ft | 491 kts | 306° |
| 2026-05-07 17:08 | -0.71299 | 137.03301 | 35836 ft | 491 kts | 306° |
| 2026-05-07 17:08 | -0.67294 | 136.97771 | 35841 ft | 491 kts | 306° |
| 2026-05-07 17:09 | -0.63289 | 136.92240 | 35831 ft | 490 kts | 306° |
| 2026-05-07 17:09 | -0.59286 | 136.86707 | 35829 ft | 490 kts | 306° |
| 2026-05-07 17:10 | -0.55284 | 136.81175 | 35834 ft | 490 kts | 306° |
| 2026-05-07 17:10 | -0.51287 | 136.75651 | 35829 ft | 490 kts | 306° |
| 2026-05-07 17:11 | -0.47288 | 136.70127 | 35834 ft | 489 kts | 306° |
| 2026-05-07 17:11 | -0.43291 | 136.64605 | 35835 ft | 490 kts | 306° |
| 2026-05-07 17:12 | -0.39321 | 136.59120 | 35831 ft | 490 kts | 306° |
| 2026-05-07 17:12 | -0.35326 | 136.53600 | 35838 ft | 489 kts | 306° |
| 2026-05-07 17:13 | -0.31330 | 136.48079 | 35829 ft | 489 kts | 306° |
| 2026-05-07 17:13 | -0.27336 | 136.42561 | 35834 ft | 489 kts | 306° |
| 2026-05-07 17:14 | -0.23340 | 136.37038 | 35829 ft | 490 kts | 307° |
| 2026-05-07 17:14 | -0.19342 | 136.31522 | 35830 ft | 490 kts | 306° |
| 2026-05-07 17:15 | -0.15342 | 136.25996 | 35831 ft | 490 kts | 306° |
| 2026-05-07 17:15 | -0.11375 | 136.20513 | 35834 ft | 490 kts | 307° |
| 2026-05-07 17:16 | -0.07379 | 136.14990 | 35834 ft | 490 kts | 307° |
| 2026-05-07 17:16 | -0.03376 | 136.09461 | 35833 ft | 491 kts | 307° |
| 2026-05-07 17:17 | 0.00632 | 136.03927 | 35832 ft | 491 kts | 307° |
| 2026-05-07 17:17 | 0.04631 | 135.98407 | 35835 ft | 489 kts | 306° |
| 2026-05-07 17:18 | 0.08624 | 135.92892 | 35832 ft | 490 kts | 307° |
| 2026-05-07 17:18 | 0.12626 | 135.87359 | 35833 ft | 490 kts | 307° |
| 2026-05-07 17:19 | 0.16626 | 135.81832 | 35834 ft | 490 kts | 307° |
| 2026-05-07 17:19 | 0.20635 | 135.76297 | 35833 ft | 490 kts | 307° |
| 2026-05-07 17:20 | 0.24638 | 135.70768 | 35834 ft | 490 kts | 307° |
| 2026-05-07 17:20 | 0.28644 | 135.65238 | 35833 ft | 490 kts | 306° |
| 2026-05-07 17:21 | 0.32608 | 135.59759 | 35834 ft | 490 kts | 306° |
| 2026-05-07 17:21 | 0.36609 | 135.54232 | 35830 ft | 490 kts | 306° |
| 2026-05-07 17:22 | 0.40604 | 135.48711 | 35835 ft | 489 kts | 306° |
| 2026-05-07 17:22 | 0.44600 | 135.43190 | 35831 ft | 489 kts | 306° |
| 2026-05-07 17:23 | 0.48574 | 135.37699 | 35829 ft | 490 kts | 306° |
| 2026-05-07 17:23 | 0.52573 | 135.32174 | 35831 ft | 490 kts | 306° |
| 2026-05-07 17:24 | 0.56579 | 135.26641 | 35833 ft | 490 kts | 306° |
| 2026-05-07 17:24 | 0.60582 | 135.21110 | 35832 ft | 490 kts | 306° |
| 2026-05-07 17:25 | 0.64583 | 135.15581 | 35834 ft | 490 kts | 306° |
| 2026-05-07 17:25 | 0.68577 | 135.10062 | 35835 ft | 490 kts | 306° |
| 2026-05-07 17:26 | 0.72548 | 135.04575 | 35834 ft | 490 kts | 306° |
| 2026-05-07 17:26 | 0.76569 | 134.99019 | 35833 ft | 490 kts | 306° |
| 2026-05-07 17:27 | 0.80538 | 134.93535 | 35836 ft | 490 kts | 306° |
| 2026-05-07 17:27 | 0.84539 | 134.88006 | 35838 ft | 489 kts | 306° |
| 2026-05-07 17:28 | 0.88528 | 134.82492 | 35834 ft | 489 kts | 306° |
| 2026-05-07 17:28 | 0.92516 | 134.76981 | 35834 ft | 489 kts | 306° |
| 2026-05-07 17:29 | 0.96507 | 134.71464 | 35835 ft | 489 kts | 306° |